Red Deer Regional Airport
CYQF : now visible

Airfield :











YOU CAN JOIN US ON...

 
LOGIN :

Register | Disclaimer

   EN    FR    IT 

 









Legend :    VFR   Marginal VFR   IFR   Intensive IFR   Very Intensive IFR
Visi :
Ceiling :
>= 8 km
>= 3000ft
5 to 8 km
1000 to 3000 ft
1500m to 5 km
500 to 1000 ft
800 to 1500m
200 to 500 ft
< 800m
< 200 ft
Symbols :   Thunderstorms  Fog  Heavy snow  Heavy precipitations  Wind > 20 kt






- Airport Elevation : 2968 ft
- IATA code : YQF


CYQF - Red Deer Regional

CURRENT METAR :
  • 120343Z 14005KT 10SM -SN FEW007 OVC080 M12/M14 A2980 RMK ST2AC6 SLP160

EXPIRED METARs :
  • 120300Z 15005KT 10SM -SN SCT060 OVC080 M11/M14 A2982 RMK SC3AC5 SLP165
  • 120200Z 16006KT 10SM -SN SCT030 OVC080 M12/M14 A2984 RMK SC3AC5 SLP172
  • 120100Z 16006KT 10SM -SN SCT035 OVC050 M12/M14 A2986 RMK SC4SC4 SLP179

TAF AMD TAF CYQF
Valid from the 12 at 03:00 until the 12 at 12:00 UTC


120314Z 1203/1212 15005KT P6SM -SN SCT060 OVC080
TEMPO 1203/1207 5SM -SN SCT030 BKN060
BECMG 1207/1209 BKN015
FM120900 15005KT 6SM BR FEW006 OVC012
TEMPO 1210/1212 2SM -SN BR OVC006
PROB30 1211/1212 3/4SM BR VV006 RMK NXT FCST BY 120600Z



MET'MAP, your aeronautical weather chart ! - Copyright ORBIFLY December 2007 - Disclaimer

ORBIFLY MET'MAP TEAM :

Programming & Development : Alexandra Zaïnal
Concept & original design : Baudouin d'Aumeries
Assistance for programming : Marc-Olivier Méhu
Technical & hardware support : Manuel Goepfert

Contact : metmap@orbifly.com




SOURCES & CREDITS :

   NOAA       Earth
Advisory